sensor_id;sensor_type;location;lat;lon;timestamp;temperature;humidity
20690;DHT22;10504;48.762;8.996;2023-11-21T00:02:05;7.40;99.90
20690;DHT22;10504;48.762;8.996;2023-11-21T00:04:31;7.40;99.90
20690;DHT22;10504;48.762;8.996;2023-11-21T00:06:56;7.40;99.90
20690;DHT22;10504;48.762;8.996;2023-11-21T00:09:22;7.40;99.90
20690;DHT22;10504;48.762;8.996;2023-11-21T00:11:48;7.40;99.90
20690;DHT22;10504;48.762;8.996;2023-11-21T00:14:14;7.40;99.90
20690;DHT22;10504;48.762;8.996;2023-11-21T00:16:41;7.50;99.90
20690;DHT22;10504;48.762;8.996;2023-11-21T00:19:07;7.50;99.90
20690;DHT22;10504;48.762;8.996;2023-11-21T00:21:32;7.50;99.90
20690;DHT22;10504;48.762;8.996;2023-11-21T00:24:00;7.50;99.90
20690;DHT22;10504;48.762;8.996;2023-11-21T00:26:26;7.50;99.90
20690;DHT22;10504;48.762;8.996;2023-11-21T00:28:51;7.50;99.90
20690;DHT22;10504;48.762;8.996;2023-11-21T00:31:17;7.50;99.90
20690;DHT22;10504;48.762;8.996;2023-11-21T00:33:42;7.50;99.90
20690;DHT22;10504;48.762;8.996;2023-11-21T00:36:11;7.60;99.90
20690;DHT22;10504;48.762;8.996;2023-11-21T00:38:37;7.60;99.90
20690;DHT22;10504;48.762;8.996;2023-11-21T00:41:05;7.60;99.90
20690;DHT22;10504;48.762;8.996;2023-11-21T00:43:31;7.60;99.90
20690;DHT22;10504;48.762;8.996;2023-11-21T00:45:59;7.60;99.90
20690;DHT22;10504;48.762;8.996;2023-11-21T00:48:24;7.60;99.90
20690;DHT22;10504;48.762;8.996;2023-11-21T00:50:50;7.60;99.90
20690;DHT22;10504;48.762;8.996;2023-11-21T00:53:16;7.60;99.90
20690;DHT22;10504;48.762;8.996;2023-11-21T00:55:41;7.60;99.90
20690;DHT22;10504;48.762;8.996;2023-11-21T00:58:07;7.60;99.90
20690;DHT22;10504;48.762;8.996;2023-11-21T01:00:33;7.50;99.90
20690;DHT22;10504;48.762;8.996;2023-11-21T01:02:59;7.60;99.90
20690;DHT22;10504;48.762;8.996;2023-11-21T01:05:25;7.50;99.90
20690;DHT22;10504;48.762;8.996;2023-11-21T01:07:52;7.50;99.90
20690;DHT22;10504;48.762;8.996;2023-11-21T01:10:18;7.50;99.90
20690;DHT22;10504;48.762;8.996;2023-11-21T01:12:44;7.50;99.90
20690;DHT22;10504;48.762;8.996;2023-11-21T01:15:09;7.50;99.90
20690;DHT22;10504;48.762;8.996;2023-11-21T01:17:37;7.50;99.90
20690;DHT22;10504;48.762;8.996;2023-11-21T01:20:07;7.50;99.90
20690;DHT22;10504;48.762;8.996;2023-11-21T01:22:37;7.50;99.90
20690;DHT22;10504;48.762;8.996;2023-11-21T01:25:02;7.50;99.90
20690;DHT22;10504;48.762;8.996;2023-11-21T01:27:30;7.50;99.90
20690;DHT22;10504;48.762;8.996;2023-11-21T01:29:55;7.50;99.90
20690;DHT22;10504;48.762;8.996;2023-11-21T01:32:21;7.50;99.90
20690;DHT22;10504;48.762;8.996;2023-11-21T01:34:47;7.50;99.90
20690;DHT22;10504;48.762;8.996;2023-11-21T01:37:13;7.50;99.90
20690;DHT22;10504;48.762;8.996;2023-11-21T01:39:39;7.50;99.90
20690;DHT22;10504;48.762;8.996;2023-11-21T01:42:05;7.50;99.90
20690;DHT22;10504;48.762;8.996;2023-11-21T01:44:31;7.50;99.90
20690;DHT22;10504;48.762;8.996;2023-11-21T01:46:57;7.50;99.90
20690;DHT22;10504;48.762;8.996;2023-11-21T01:49:23;7.50;99.90
20690;DHT22;10504;48.762;8.996;2023-11-21T01:51:49;7.50;99.90
20690;DHT22;10504;48.762;8.996;2023-11-21T01:54:17;7.50;99.90
20690;DHT22;10504;48.762;8.996;2023-11-21T01:56:45;7.60;99.90
20690;DHT22;10504;48.762;8.996;2023-11-21T01:59:12;7.60;99.90
20690;DHT22;10504;48.762;8.996;2023-11-21T02:01:39;7.60;99.90
20690;DHT22;10504;48.762;8.996;2023-11-21T02:04:06;7.60;99.90
20690;DHT22;10504;48.762;8.996;2023-11-21T02:06:33;7.60;99.90
20690;DHT22;10504;48.762;8.996;2023-11-21T02:08:59;7.60;99.90
20690;DHT22;10504;48.762;8.996;2023-11-21T02:11:25;7.50;99.90
20690;DHT22;10504;48.762;8.996;2023-11-21T02:13:53;7.60;99.90
20690;DHT22;10504;48.762;8.996;2023-11-21T02:16:19;7.60;99.90
20690;DHT22;10504;48.762;8.996;2023-11-21T02:18:47;7.60;99.90
20690;DHT22;10504;48.762;8.996;2023-11-21T02:21:14;7.60;99.90
20690;DHT22;10504;48.762;8.996;2023-11-21T02:23:40;7.60;99.90
20690;DHT22;10504;48.762;8.996;2023-11-21T02:26:10;7.60;99.90
20690;DHT22;10504;48.762;8.996;2023-11-21T02:28:36;7.60;99.90
20690;DHT22;10504;48.762;8.996;2023-11-21T02:31:02;7.60;99.90
20690;DHT22;10504;48.762;8.996;2023-11-21T02:33:30;7.50;99.90
20690;DHT22;10504;48.762;8.996;2023-11-21T02:35:58;7.50;99.90
20690;DHT22;10504;48.762;8.996;2023-11-21T02:38:24;7.50;99.90
20690;DHT22;10504;48.762;8.996;2023-11-21T02:40:50;7.50;99.90
20690;DHT22;10504;48.762;8.996;2023-11-21T02:43:15;7.50;99.90
20690;DHT22;10504;48.762;8.996;2023-11-21T02:45:41;7.50;99.90
20690;DHT22;10504;48.762;8.996;2023-11-21T02:48:07;7.50;99.90
20690;DHT22;10504;48.762;8.996;2023-11-21T02:50:33;7.50;99.90
20690;DHT22;10504;48.762;8.996;2023-11-21T02:53:00;7.50;99.90
20690;DHT22;10504;48.762;8.996;2023-11-21T02:55:27;7.50;99.90
20690;DHT22;10504;48.762;8.996;2023-11-21T02:57:53;7.40;99.90
20690;DHT22;10504;48.762;8.996;2023-11-21T03:00:18;7.40;99.90
20690;DHT22;10504;48.762;8.996;2023-11-21T03:02:45;7.30;99.90
20690;DHT22;10504;48.762;8.996;2023-11-21T03:05:10;7.30;99.90
20690;DHT22;10504;48.762;8.996;2023-11-21T03:07:37;7.30;99.90
20690;DHT22;10504;48.762;8.996;2023-11-21T03:10:03;7.30;99.90
20690;DHT22;10504;48.762;8.996;2023-11-21T03:12:30;7.30;99.90
20690;DHT22;10504;48.762;8.996;2023-11-21T03:14:55;7.30;99.90
20690;DHT22;10504;48.762;8.996;2023-11-21T03:17:21;7.40;99.90
20690;DHT22;10504;48.762;8.996;2023-11-21T03:19:47;7.40;99.90
20690;DHT22;10504;48.762;8.996;2023-11-21T03:22:12;7.40;99.90
20690;DHT22;10504;48.762;8.996;2023-11-21T03:24:38;7.40;99.90
20690;DHT22;10504;48.762;8.996;2023-11-21T03:27:04;7.30;99.90
20690;DHT22;10504;48.762;8.996;2023-11-21T03:29:30;7.30;99.90
20690;DHT22;10504;48.762;8.996;2023-11-21T03:31:56;7.30;99.90
20690;DHT22;10504;48.762;8.996;2023-11-21T03:34:26;7.40;99.90
20690;DHT22;10504;48.762;8.996;2023-11-21T03:36:52;7.40;99.90
20690;DHT22;10504;48.762;8.996;2023-11-21T03:39:19;7.30;99.90
20690;DHT22;10504;48.762;8.996;2023-11-21T03:41:45;7.40;99.90
20690;DHT22;10504;48.762;8.996;2023-11-21T03:44:11;7.40;99.90
20690;DHT22;10504;48.762;8.996;2023-11-21T03:46:37;7.40;99.90
20690;DHT22;10504;48.762;8.996;2023-11-21T03:49:02;7.40;99.90
20690;DHT22;10504;48.762;8.996;2023-11-21T03:51:28;7.40;99.90
20690;DHT22;10504;48.762;8.996;2023-11-21T03:53:53;7.40;99.90
20690;DHT22;10504;48.762;8.996;2023-11-21T03:56:19;7.40;99.90
20690;DHT22;10504;48.762;8.996;2023-11-21T03:58:47;7.40;99.90
20690;DHT22;10504;48.762;8.996;2023-11-21T04:01:24;7.40;99.90
20690;DHT22;10504;48.762;8.996;2023-11-21T04:03:50;7.40;99.90
20690;DHT22;10504;48.762;8.996;2023-11-21T04:06:17;7.40;99.90
20690;DHT22;10504;48.762;8.996;2023-11-21T04:08:44;7.40;99.90
20690;DHT22;10504;48.762;8.996;2023-11-21T04:11:10;7.40;99.90
20690;DHT22;10504;48.762;8.996;2023-11-21T04:13:40;7.40;99.90
20690;DHT22;10504;48.762;8.996;2023-11-21T04:16:07;7.40;99.90
20690;DHT22;10504;48.762;8.996;2023-11-21T04:18:36;7.40;99.90
20690;DHT22;10504;48.762;8.996;2023-11-21T04:21:02;7.40;99.90
20690;DHT22;10504;48.762;8.996;2023-11-21T04:23:35;7.40;99.90
20690;DHT22;10504;48.762;8.996;2023-11-21T04:26:01;7.40;99.90
20690;DHT22;10504;48.762;8.996;2023-11-21T04:28:27;7.40;99.90
20690;DHT22;10504;48.762;8.996;2023-11-21T04:30:53;7.40;99.90
20690;DHT22;10504;48.762;8.996;2023-11-21T04:33:40;7.40;99.90
20690;DHT22;10504;48.762;8.996;2023-11-21T04:36:07;7.40;99.90
20690;DHT22;10504;48.762;8.996;2023-11-21T04:38:32;7.40;99.90
20690;DHT22;10504;48.762;8.996;2023-11-21T04:40:58;7.40;99.90
20690;DHT22;10504;48.762;8.996;2023-11-21T04:43:24;7.40;99.90
20690;DHT22;10504;48.762;8.996;2023-11-21T04:45:49;7.40;99.90
20690;DHT22;10504;48.762;8.996;2023-11-21T04:48:15;7.30;99.90
20690;DHT22;10504;48.762;8.996;2023-11-21T04:50:41;7.30;99.90
20690;DHT22;10504;48.762;8.996;2023-11-21T04:53:06;7.30;99.90
20690;DHT22;10504;48.762;8.996;2023-11-21T04:55:32;7.30;99.90
20690;DHT22;10504;48.762;8.996;2023-11-21T04:57:58;7.30;99.90
20690;DHT22;10504;48.762;8.996;2023-11-21T05:00:23;7.30;99.90
20690;DHT22;10504;48.762;8.996;2023-11-21T05:02:49;7.30;99.90
20690;DHT22;10504;48.762;8.996;2023-11-21T05:05:15;7.30;99.90
20690;DHT22;10504;48.762;8.996;2023-11-21T05:07:40;7.30;99.90
20690;DHT22;10504;48.762;8.996;2023-11-21T05:10:09;7.30;99.90
20690;DHT22;10504;48.762;8.996;2023-11-21T05:12:37;7.30;99.90
20690;DHT22;10504;48.762;8.996;2023-11-21T05:15:07;7.40;99.90
20690;DHT22;10504;48.762;8.996;2023-11-21T05:17:37;7.30;99.90
20690;DHT22;10504;48.762;8.996;2023-11-21T05:20:04;7.30;99.90
20690;DHT22;10504;48.762;8.996;2023-11-21T05:22:34;7.30;99.90
20690;DHT22;10504;48.762;8.996;2023-11-21T05:25:00;7.30;99.90
20690;DHT22;10504;48.762;8.996;2023-11-21T05:27:25;7.30;99.90
20690;DHT22;10504;48.762;8.996;2023-11-21T05:29:51;7.20;99.90
20690;DHT22;10504;48.762;8.996;2023-11-21T05:32:16;7.20;99.90
20690;DHT22;10504;48.762;8.996;2023-11-21T05:34:43;7.20;99.90
20690;DHT22;10504;48.762;8.996;2023-11-21T05:37:08;7.20;99.90
20690;DHT22;10504;48.762;8.996;2023-11-21T05:39:34;7.20;99.90
20690;DHT22;10504;48.762;8.996;2023-11-21T05:42:01;7.20;99.90
20690;DHT22;10504;48.762;8.996;2023-11-21T05:44:26;7.10;99.90
20690;DHT22;10504;48.762;8.996;2023-11-21T05:46:52;7.10;99.90
20690;DHT22;10504;48.762;8.996;2023-11-21T05:49:18;7.10;99.90
20690;DHT22;10504;48.762;8.996;2023-11-21T05:51:47;7.10;99.90
20690;DHT22;10504;48.762;8.996;2023-11-21T05:54:13;7.10;99.90
20690;DHT22;10504;48.762;8.996;2023-11-21T05:56:38;7.10;99.90
20690;DHT22;10504;48.762;8.996;2023-11-21T05:59:04;7.10;99.90
20690;DHT22;10504;48.762;8.996;2023-11-21T06:01:29;7.10;99.90
20690;DHT22;10504;48.762;8.996;2023-11-21T06:03:55;7.10;99.90
20690;DHT22;10504;48.762;8.996;2023-11-21T06:06:21;7.10;99.90
20690;DHT22;10504;48.762;8.996;2023-11-21T06:08:48;7.10;99.90
20690;DHT22;10504;48.762;8.996;2023-11-21T06:11:14;7.10;99.90
20690;DHT22;10504;48.762;8.996;2023-11-21T06:13:41;7.10;99.90
20690;DHT22;10504;48.762;8.996;2023-11-21T06:16:08;7.10;99.90
20690;DHT22;10504;48.762;8.996;2023-11-21T06:18:37;7.10;99.90
20690;DHT22;10504;48.762;8.996;2023-11-21T06:21:02;7.10;99.90
20690;DHT22;10504;48.762;8.996;2023-11-21T06:23:28;7.20;99.90
20690;DHT22;10504;48.762;8.996;2023-11-21T06:25:53;7.20;99.90
20690;DHT22;10504;48.762;8.996;2023-11-21T06:28:19;7.20;99.90
20690;DHT22;10504;48.762;8.996;2023-11-21T06:30:45;7.30;99.90
20690;DHT22;10504;48.762;8.996;2023-11-21T06:33:10;7.30;99.90
20690;DHT22;10504;48.762;8.996;2023-11-21T06:35:36;7.40;99.90
20690;DHT22;10504;48.762;8.996;2023-11-21T06:38:02;7.40;99.90
20690;DHT22;10504;48.762;8.996;2023-11-21T06:40:28;7.40;99.90
20690;DHT22;10504;48.762;8.996;2023-11-21T06:42:54;7.40;99.90
20690;DHT22;10504;48.762;8.996;2023-11-21T06:45:19;7.40;99.90
20690;DHT22;10504;48.762;8.996;2023-11-21T06:47:45;7.40;99.90
20690;DHT22;10504;48.762;8.996;2023-11-21T06:50:11;7.40;99.90
20690;DHT22;10504;48.762;8.996;2023-11-21T06:52:37;7.40;99.90
20690;DHT22;10504;48.762;8.996;2023-11-21T06:55:04;7.40;99.90
20690;DHT22;10504;48.762;8.996;2023-11-21T06:57:30;7.40;99.90
20690;DHT22;10504;48.762;8.996;2023-11-21T06:59:56;7.40;99.90
20690;DHT22;10504;48.762;8.996;2023-11-21T07:02:22;7.40;99.90
20690;DHT22;10504;48.762;8.996;2023-11-21T07:04:48;7.40;99.90
20690;DHT22;10504;48.762;8.996;2023-11-21T07:07:14;7.40;99.90
20690;DHT22;10504;48.762;8.996;2023-11-21T07:09:39;7.40;99.90
20690;DHT22;10504;48.762;8.996;2023-11-21T07:12:05;7.40;99.90
20690;DHT22;10504;48.762;8.996;2023-11-21T07:14:36;7.40;99.90
20690;DHT22;10504;48.762;8.996;2023-11-21T07:17:04;7.40;99.90
20690;DHT22;10504;48.762;8.996;2023-11-21T07:19:30;7.40;99.90
20690;DHT22;10504;48.762;8.996;2023-11-21T07:21:56;7.40;99.90
20690;DHT22;10504;48.762;8.996;2023-11-21T07:24:22;7.40;99.90
20690;DHT22;10504;48.762;8.996;2023-11-21T07:26:48;7.40;99.90
20690;DHT22;10504;48.762;8.996;2023-11-21T07:29:14;7.40;99.90
20690;DHT22;10504;48.762;8.996;2023-11-21T07:31:40;7.40;99.90
20690;DHT22;10504;48.762;8.996;2023-11-21T07:34:06;7.40;99.90
20690;DHT22;10504;48.762;8.996;2023-11-21T07:36:33;7.40;99.90
20690;DHT22;10504;48.762;8.996;2023-11-21T07:38:59;7.40;99.90
20690;DHT22;10504;48.762;8.996;2023-11-21T07:41:25;7.40;99.90
20690;DHT22;10504;48.762;8.996;2023-11-21T07:43:51;7.40;99.90
20690;DHT22;10504;48.762;8.996;2023-11-21T07:46:17;7.50;99.90
20690;DHT22;10504;48.762;8.996;2023-11-21T07:48:43;7.50;99.90
20690;DHT22;10504;48.762;8.996;2023-11-21T07:51:09;7.50;99.90
20690;DHT22;10504;48.762;8.996;2023-11-21T07:53:36;7.60;99.90
20690;DHT22;10504;48.762;8.996;2023-11-21T07:56:08;7.60;99.90
20690;DHT22;10504;48.762;8.996;2023-11-21T07:58:35;7.60;99.90
20690;DHT22;10504;48.762;8.996;2023-11-21T08:01:01;7.60;99.90
20690;DHT22;10504;48.762;8.996;2023-11-21T08:03:27;7.70;99.90
20690;DHT22;10504;48.762;8.996;2023-11-21T08:05:54;7.70;99.90
20690;DHT22;10504;48.762;8.996;2023-11-21T08:08:20;7.70;99.90
20690;DHT22;10504;48.762;8.996;2023-11-21T08:10:46;7.80;99.90
20690;DHT22;10504;48.762;8.996;2023-11-21T08:13:13;7.80;99.90
20690;DHT22;10504;48.762;8.996;2023-11-21T08:15:41;7.80;99.90
20690;DHT22;10504;48.762;8.996;2023-11-21T08:18:10;7.90;99.90
20690;DHT22;10504;48.762;8.996;2023-11-21T08:20:36;7.90;99.90
20690;DHT22;10504;48.762;8.996;2023-11-21T08:23:03;7.90;99.90
20690;DHT22;10504;48.762;8.996;2023-11-21T08:25:31;7.90;99.90
20690;DHT22;10504;48.762;8.996;2023-11-21T08:27:57;7.80;99.90
20690;DHT22;10504;48.762;8.996;2023-11-21T08:30:23;7.90;99.90
20690;DHT22;10504;48.762;8.996;2023-11-21T08:32:49;7.80;99.90
20690;DHT22;10504;48.762;8.996;2023-11-21T08:35:17;7.80;99.90
20690;DHT22;10504;48.762;8.996;2023-11-21T08:37:43;7.80;99.90
20690;DHT22;10504;48.762;8.996;2023-11-21T08:40:09;7.80;99.90
20690;DHT22;10504;48.762;8.996;2023-11-21T08:42:37;7.90;99.90
20690;DHT22;10504;48.762;8.996;2023-11-21T08:45:04;7.90;99.90
20690;DHT22;10504;48.762;8.996;2023-11-21T08:47:29;7.90;99.90
20690;DHT22;10504;48.762;8.996;2023-11-21T08:49:55;7.90;99.90
20690;DHT22;10504;48.762;8.996;2023-11-21T08:52:23;7.90;99.90
20690;DHT22;10504;48.762;8.996;2023-11-21T08:54:49;7.90;99.90
20690;DHT22;10504;48.762;8.996;2023-11-21T08:57:22;7.90;99.90
20690;DHT22;10504;48.762;8.996;2023-11-21T08:59:47;7.90;99.90
20690;DHT22;10504;48.762;8.996;2023-11-21T09:02:13;7.90;99.90
20690;DHT22;10504;48.762;8.996;2023-11-21T09:04:39;7.90;99.90
20690;DHT22;10504;48.762;8.996;2023-11-21T09:07:04;7.90;99.90
20690;DHT22;10504;48.762;8.996;2023-11-21T09:09:30;7.90;99.90
20690;DHT22;10504;48.762;8.996;2023-11-21T09:11:56;7.90;99.90
20690;DHT22;10504;48.762;8.996;2023-11-21T09:14:22;7.90;99.90
20690;DHT22;10504;48.762;8.996;2023-11-21T09:16:48;7.90;99.90
20690;DHT22;10504;48.762;8.996;2023-11-21T09:19:15;7.90;99.90
20690;DHT22;10504;48.762;8.996;2023-11-21T09:21:40;7.80;99.90
20690;DHT22;10504;48.762;8.996;2023-11-21T09:24:06;7.80;99.90
20690;DHT22;10504;48.762;8.996;2023-11-21T09:26:34;7.80;99.90
20690;DHT22;10504;48.762;8.996;2023-11-21T09:29:00;7.80;99.90
20690;DHT22;10504;48.762;8.996;2023-11-21T09:31:27;7.80;99.90
20690;DHT22;10504;48.762;8.996;2023-11-21T09:33:53;7.80;99.90
20690;DHT22;10504;48.762;8.996;2023-11-21T09:36:18;7.80;99.90
20690;DHT22;10504;48.762;8.996;2023-11-21T09:38:44;7.80;99.90
20690;DHT22;10504;48.762;8.996;2023-11-21T09:41:21;7.80;99.90
20690;DHT22;10504;48.762;8.996;2023-11-21T09:43:47;7.80;99.90
20690;DHT22;10504;48.762;8.996;2023-11-21T09:46:15;7.90;99.90
20690;DHT22;10504;48.762;8.996;2023-11-21T09:48:48;7.90;99.90
20690;DHT22;10504;48.762;8.996;2023-11-21T09:51:16;7.90;99.90
20690;DHT22;10504;48.762;8.996;2023-11-21T09:53:46;7.90;99.90
20690;DHT22;10504;48.762;8.996;2023-11-21T09:56:14;7.90;99.90
20690;DHT22;10504;48.762;8.996;2023-11-21T09:58:44;7.90;99.90
20690;DHT22;10504;48.762;8.996;2023-11-21T10:01:11;7.90;99.90
20690;DHT22;10504;48.762;8.996;2023-11-21T10:03:38;8.00;99.90
20690;DHT22;10504;48.762;8.996;2023-11-21T10:06:05;8.00;99.90
20690;DHT22;10504;48.762;8.996;2023-11-21T10:08:32;7.90;99.90
20690;DHT22;10504;48.762;8.996;2023-11-21T10:10:58;8.00;99.90
20690;DHT22;10504;48.762;8.996;2023-11-21T10:13:26;7.90;99.90
20690;DHT22;10504;48.762;8.996;2023-11-21T10:15:55;8.00;99.90
20690;DHT22;10504;48.762;8.996;2023-11-21T10:18:23;8.00;99.90
20690;DHT22;10504;48.762;8.996;2023-11-21T10:20:50;8.00;99.90
20690;DHT22;10504;48.762;8.996;2023-11-21T10:23:20;8.00;99.90
20690;DHT22;10504;48.762;8.996;2023-11-21T10:25:47;8.00;99.90
20690;DHT22;10504;48.762;8.996;2023-11-21T10:28:12;8.00;99.90
20690;DHT22;10504;48.762;8.996;2023-11-21T10:30:38;8.00;99.90
20690;DHT22;10504;48.762;8.996;2023-11-21T10:33:06;8.00;99.90
20690;DHT22;10504;48.762;8.996;2023-11-21T10:38:23;8.00;99.90
20690;DHT22;10504;48.762;8.996;2023-11-21T10:40:50;8.00;99.90
20690;DHT22;10504;48.762;8.996;2023-11-21T10:43:16;7.90;99.90
20690;DHT22;10504;48.762;8.996;2023-11-21T10:45:42;8.00;99.90
20690;DHT22;10504;48.762;8.996;2023-11-21T10:48:15;8.00;99.90
20690;DHT22;10504;48.762;8.996;2023-11-21T10:50:43;8.00;99.90
20690;DHT22;10504;48.762;8.996;2023-11-21T10:53:09;8.00;99.90
20690;DHT22;10504;48.762;8.996;2023-11-21T10:55:34;8.00;99.90
20690;DHT22;10504;48.762;8.996;2023-11-21T10:58:02;8.00;99.90
20690;DHT22;10504;48.762;8.996;2023-11-21T11:00:30;8.10;99.90
20690;DHT22;10504;48.762;8.996;2023-11-21T11:02:55;8.00;99.90
20690;DHT22;10504;48.762;8.996;2023-11-21T11:05:26;8.10;99.90
20690;DHT22;10504;48.762;8.996;2023-11-21T11:08:06;8.00;99.90
20690;DHT22;10504;48.762;8.996;2023-11-21T11:10:33;8.10;99.90
20690;DHT22;10504;48.762;8.996;2023-11-21T11:12:59;8.10;99.90
20690;DHT22;10504;48.762;8.996;2023-11-21T11:15:26;8.10;99.90
20690;DHT22;10504;48.762;8.996;2023-11-21T11:17:52;8.10;99.90
20690;DHT22;10504;48.762;8.996;2023-11-21T11:20:27;8.10;99.90
20690;DHT22;10504;48.762;8.996;2023-11-21T11:22:59;8.20;99.90
20690;DHT22;10504;48.762;8.996;2023-11-21T11:28:10;8.20;99.90
20690;DHT22;10504;48.762;8.996;2023-11-21T11:33:58;8.20;99.90
20690;DHT22;10504;48.762;8.996;2023-11-21T11:36:44;8.20;99.90
20690;DHT22;10504;48.762;8.996;2023-11-21T11:39:51;8.20;99.90
20690;DHT22;10504;48.762;8.996;2023-11-21T11:42:17;8.20;99.90
20690;DHT22;10504;48.762;8.996;2023-11-21T11:47:15;8.20;99.90
20690;DHT22;10504;48.762;8.996;2023-11-21T11:50:04;8.10;99.90
20690;DHT22;10504;48.762;8.996;2023-11-21T11:52:43;8.10;99.90
20690;DHT22;10504;48.762;8.996;2023-11-21T11:55:13;8.10;99.90
20690;DHT22;10504;48.762;8.996;2023-11-21T11:57:42;8.00;99.90
20690;DHT22;10504;48.762;8.996;2023-11-21T12:02:54;8.10;99.90
20690;DHT22;10504;48.762;8.996;2023-11-21T12:05:22;8.10;99.90
20690;DHT22;10504;48.762;8.996;2023-11-21T12:10:21;8.20;99.90
20690;DHT22;10504;48.762;8.996;2023-11-21T12:12:49;8.20;99.90
20690;DHT22;10504;48.762;8.996;2023-11-21T12:15:16;8.20;99.90
20690;DHT22;10504;48.762;8.996;2023-11-21T12:17:43;8.10;99.90
20690;DHT22;10504;48.762;8.996;2023-11-21T12:20:09;8.20;99.90
20690;DHT22;10504;48.762;8.996;2023-11-21T12:22:47;8.20;99.90
20690;DHT22;10504;48.762;8.996;2023-11-21T12:25:17;8.20;99.90
20690;DHT22;10504;48.762;8.996;2023-11-21T12:27:56;8.30;99.90
20690;DHT22;10504;48.762;8.996;2023-11-21T12:30:24;8.30;99.90
20690;DHT22;10504;48.762;8.996;2023-11-21T12:32:54;8.30;99.90
20690;DHT22;10504;48.762;8.996;2023-11-21T12:35:32;8.40;99.90
20690;DHT22;10504;48.762;8.996;2023-11-21T12:38:01;8.30;99.90
20690;DHT22;10504;48.762;8.996;2023-11-21T12:40:34;8.40;99.90
20690;DHT22;10504;48.762;8.996;2023-11-21T12:43:00;8.40;99.90
20690;DHT22;10504;48.762;8.996;2023-11-21T12:45:29;8.40;99.90
20690;DHT22;10504;48.762;8.996;2023-11-21T12:48:01;8.40;99.90
20690;DHT22;10504;48.762;8.996;2023-11-21T12:50:31;8.40;99.90
20690;DHT22;10504;48.762;8.996;2023-11-21T12:53:01;8.40;99.90
20690;DHT22;10504;48.762;8.996;2023-11-21T12:55:33;8.40;99.90
20690;DHT22;10504;48.762;8.996;2023-11-21T12:58:03;8.40;99.90
20690;DHT22;10504;48.762;8.996;2023-11-21T13:00:46;8.40;99.90
20690;DHT22;10504;48.762;8.996;2023-11-21T13:03:15;8.40;99.90
20690;DHT22;10504;48.762;8.996;2023-11-21T13:05:51;8.30;99.90
20690;DHT22;10504;48.762;8.996;2023-11-21T13:08:21;8.30;99.90
20690;DHT22;10504;48.762;8.996;2023-11-21T13:10:52;8.40;99.90
20690;DHT22;10504;48.762;8.996;2023-11-21T13:13:19;8.40;99.90
20690;DHT22;10504;48.762;8.996;2023-11-21T13:18:18;8.40;99.90
20690;DHT22;10504;48.762;8.996;2023-11-21T13:20:44;8.40;99.90
20690;DHT22;10504;48.762;8.996;2023-11-21T13:23:12;8.40;99.90
20690;DHT22;10504;48.762;8.996;2023-11-21T13:25:38;8.30;99.90
20690;DHT22;10504;48.762;8.996;2023-11-21T13:28:06;8.30;99.90
20690;DHT22;10504;48.762;8.996;2023-11-21T13:30:32;8.20;99.90
20690;DHT22;10504;48.762;8.996;2023-11-21T13:33:04;8.10;99.90
20690;DHT22;10504;48.762;8.996;2023-11-21T13:35:36;8.10;99.90
20690;DHT22;10504;48.762;8.996;2023-11-21T13:38:08;8.00;99.90
20690;DHT22;10504;48.762;8.996;2023-11-21T13:40:35;7.90;99.90
20690;DHT22;10504;48.762;8.996;2023-11-21T13:43:09;7.90;99.90
20690;DHT22;10504;48.762;8.996;2023-11-21T13:45:42;7.90;99.90
20690;DHT22;10504;48.762;8.996;2023-11-21T13:48:10;7.90;99.90
20690;DHT22;10504;48.762;8.996;2023-11-21T13:50:36;7.90;99.90
20690;DHT22;10504;48.762;8.996;2023-11-21T13:53:03;7.90;99.90
20690;DHT22;10504;48.762;8.996;2023-11-21T13:55:36;7.90;99.90
20690;DHT22;10504;48.762;8.996;2023-11-21T13:58:02;7.90;99.90
20690;DHT22;10504;48.762;8.996;2023-11-21T14:00:29;7.90;99.90
20690;DHT22;10504;48.762;8.996;2023-11-21T14:03:09;8.00;99.90
20690;DHT22;10504;48.762;8.996;2023-11-21T14:05:43;8.00;99.90
20690;DHT22;10504;48.762;8.996;2023-11-21T14:08:10;8.00;99.90
20690;DHT22;10504;48.762;8.996;2023-11-21T14:10:37;8.00;99.90
20690;DHT22;10504;48.762;8.996;2023-11-21T14:13:08;8.00;99.90
20690;DHT22;10504;48.762;8.996;2023-11-21T14:15:36;8.00;99.90
20690;DHT22;10504;48.762;8.996;2023-11-21T14:18:07;7.90;99.90
20690;DHT22;10504;48.762;8.996;2023-11-21T14:20:36;8.00;99.90
20690;DHT22;10504;48.762;8.996;2023-11-21T14:23:03;8.00;99.90
20690;DHT22;10504;48.762;8.996;2023-11-21T14:25:31;8.00;99.90
20690;DHT22;10504;48.762;8.996;2023-11-21T14:27:57;8.00;99.90
20690;DHT22;10504;48.762;8.996;2023-11-21T14:30:23;8.10;99.90
20690;DHT22;10504;48.762;8.996;2023-11-21T14:32:48;8.10;99.90
20690;DHT22;10504;48.762;8.996;2023-11-21T14:35:15;8.10;99.90
20690;DHT22;10504;48.762;8.996;2023-11-21T14:37:42;8.10;99.90
20690;DHT22;10504;48.762;8.996;2023-11-21T14:40:08;8.10;99.90
20690;DHT22;10504;48.762;8.996;2023-11-21T14:42:34;8.10;99.90
20690;DHT22;10504;48.762;8.996;2023-11-21T14:45:03;8.00;99.90
20690;DHT22;10504;48.762;8.996;2023-11-21T14:47:32;8.10;99.90
20690;DHT22;10504;48.762;8.996;2023-11-21T14:50:02;8.00;99.90
20690;DHT22;10504;48.762;8.996;2023-11-21T14:52:48;8.00;99.90
20690;DHT22;10504;48.762;8.996;2023-11-21T14:55:24;7.90;99.90
20690;DHT22;10504;48.762;8.996;2023-11-21T14:58:22;7.90;99.90
20690;DHT22;10504;48.762;8.996;2023-11-21T15:00:57;7.90;99.90
20690;DHT22;10504;48.762;8.996;2023-11-21T15:03:27;7.80;99.90
20690;DHT22;10504;48.762;8.996;2023-11-21T15:05:59;7.80;99.90
20690;DHT22;10504;48.762;8.996;2023-11-21T15:08:35;7.80;99.90
20690;DHT22;10504;48.762;8.996;2023-11-21T15:11:01;7.80;99.90
20690;DHT22;10504;48.762;8.996;2023-11-21T15:13:32;7.80;99.90
20690;DHT22;10504;48.762;8.996;2023-11-21T15:15:58;7.90;99.90
20690;DHT22;10504;48.762;8.996;2023-11-21T15:18:33;7.80;99.90
20690;DHT22;10504;48.762;8.996;2023-11-21T15:20:59;7.80;99.90
20690;DHT22;10504;48.762;8.996;2023-11-21T15:23:25;7.70;99.90
20690;DHT22;10504;48.762;8.996;2023-11-21T15:25:53;7.70;99.90
20690;DHT22;10504;48.762;8.996;2023-11-21T15:28:19;7.70;99.90
20690;DHT22;10504;48.762;8.996;2023-11-21T15:30:45;7.70;99.90
20690;DHT22;10504;48.762;8.996;2023-11-21T15:33:13;7.70;99.90
20690;DHT22;10504;48.762;8.996;2023-11-21T15:35:39;7.70;99.90
20690;DHT22;10504;48.762;8.996;2023-11-21T15:38:06;7.70;99.90
20690;DHT22;10504;48.762;8.996;2023-11-21T15:40:33;7.70;99.90
20690;DHT22;10504;48.762;8.996;2023-11-21T15:42:59;7.70;99.90
20690;DHT22;10504;48.762;8.996;2023-11-21T15:45:25;7.70;99.90
20690;DHT22;10504;48.762;8.996;2023-11-21T15:47:51;7.70;99.90
20690;DHT22;10504;48.762;8.996;2023-11-21T15:50:18;7.70;99.90
20690;DHT22;10504;48.762;8.996;2023-11-21T15:52:44;7.70;99.90
20690;DHT22;10504;48.762;8.996;2023-11-21T15:55:10;7.70;99.90
20690;DHT22;10504;48.762;8.996;2023-11-21T15:57:37;7.70;99.90
20690;DHT22;10504;48.762;8.996;2023-11-21T16:00:03;7.70;99.90
20690;DHT22;10504;48.762;8.996;2023-11-21T16:02:36;7.70;99.90
20690;DHT22;10504;48.762;8.996;2023-11-21T16:05:04;7.70;99.90
20690;DHT22;10504;48.762;8.996;2023-11-21T16:07:30;7.70;99.90